createdAt,value
2022-11-20T00:01:55.439Z,5.35
2022-11-20T00:04:25.477Z,5.33
2022-11-20T00:06:55.559Z,5.30
2022-11-20T00:09:25.584Z,5.30
2022-11-20T00:11:55.779Z,5.35
2022-11-20T00:14:25.882Z,5.35
2022-11-20T00:16:55.926Z,5.26
2022-11-20T00:19:26.010Z,5.24
2022-11-20T00:21:56.883Z,5.24
2022-11-20T00:24:26.896Z,5.24
2022-11-20T00:26:56.961Z,5.23
2022-11-20T00:29:26.950Z,5.22
2022-11-20T00:31:57.011Z,5.18
2022-11-20T00:34:26.996Z,5.15
2022-11-20T00:36:56.882Z,5.15
2022-11-20T00:39:26.861Z,5.16
2022-11-20T00:41:57.088Z,5.15
2022-11-20T00:44:26.690Z,5.13
2022-11-20T00:46:56.206Z,5.13
2022-11-20T00:49:26.308Z,5.14
2022-11-20T00:51:55.949Z,5.17
2022-11-20T00:54:25.177Z,5.19
2022-11-20T00:56:56.919Z,5.22
2022-11-20T00:59:27.563Z,5.21
2022-11-20T01:01:57.642Z,5.18
2022-11-20T01:04:26.584Z,5.16
2022-11-20T01:06:56.733Z,5.10
2022-11-20T01:09:26.740Z,5.06
2022-11-20T01:11:57.554Z,5.01
2022-11-20T01:14:29.726Z,4.94
2022-11-20T01:16:59.740Z,4.87
2022-11-20T01:19:29.855Z,4.79
2022-11-20T01:22:00.106Z,4.76
2022-11-20T01:24:30.300Z,4.76
2022-11-20T01:27:00.408Z,4.76
2022-11-20T01:29:30.637Z,4.78
2022-11-20T01:32:01.073Z,4.80
2022-11-20T01:34:31.592Z,4.83
2022-11-20T01:37:01.728Z,4.86
2022-11-20T01:39:31.881Z,4.87
2022-11-20T01:42:21.922Z,4.86
2022-11-20T01:44:52.744Z,4.84
2022-11-20T01:47:46.427Z,4.81
2022-11-20T01:50:35.546Z,4.82
2022-11-20T01:53:13.179Z,4.85
2022-11-20T01:55:53.762Z,4.92
2022-11-20T01:58:33.717Z,4.99
2022-11-20T02:01:05.586Z,5.04
2022-11-20T02:03:36.199Z,5.07
2022-11-20T02:06:27.341Z,5.12
2022-11-20T02:08:56.687Z,5.16
2022-11-20T02:11:27.282Z,5.20
2022-11-20T02:13:57.347Z,5.25
2022-11-20T02:16:30.885Z,5.30
2022-11-20T02:19:03.539Z,5.34
2022-11-20T02:21:37.555Z,5.38
2022-11-20T02:24:11.275Z,5.40
2022-11-20T02:26:52.866Z,5.41
2022-11-20T02:29:40.432Z,5.42
2022-11-20T02:32:20.615Z,5.43
2022-11-20T02:34:51.178Z,5.45
2022-11-20T02:37:22.374Z,5.46
2022-11-20T02:39:53.793Z,5.49
2022-11-20T02:42:24.006Z,5.52
2022-11-20T02:44:54.491Z,5.51
2022-11-20T02:47:24.960Z,5.51
2022-11-20T02:49:55.226Z,5.51
2022-11-20T02:52:26.321Z,5.51
2022-11-20T02:54:55.502Z,5.52
2022-11-20T02:57:25.010Z,5.54
2022-11-20T02:59:55.530Z,5.56
2022-11-20T03:02:25.937Z,5.58
2022-11-20T03:04:55.889Z,5.59
2022-11-20T03:07:24.750Z,5.61
2022-11-20T03:09:55.366Z,5.63
2022-11-20T03:12:26.181Z,5.65
2022-11-20T03:14:57.005Z,5.66
2022-11-20T03:17:27.527Z,5.67
2022-11-20T03:19:57.353Z,5.67
2022-11-20T03:22:30.091Z,5.64
2022-11-20T03:25:00.783Z,5.57
2022-11-20T03:27:35.156Z,5.44
2022-11-20T03:30:06.829Z,5.36
2022-11-20T03:32:39.663Z,5.35
2022-11-20T03:35:10.792Z,5.38
2022-11-20T03:37:39.651Z,5.44
2022-11-20T03:40:10.633Z,5.48
2022-11-20T03:42:49.134Z,5.52
2022-11-20T03:45:20.201Z,5.56
2022-11-20T03:47:50.831Z,5.57
2022-11-20T03:50:20.412Z,5.57
2022-11-20T03:52:50.791Z,5.57
2022-11-20T03:55:21.429Z,5.59
2022-11-20T03:57:50.303Z,5.61
2022-11-20T04:00:20.464Z,5.62
2022-11-20T04:02:50.580Z,5.64
2022-11-20T04:05:20.801Z,5.64
2022-11-20T04:07:51.185Z,5.66
2022-11-20T04:10:21.540Z,5.66
2022-11-20T04:12:51.651Z,5.68
2022-11-20T04:15:21.770Z,5.70
2022-11-20T04:17:52.045Z,5.71
2022-11-20T04:20:22.235Z,5.72
2022-11-20T04:22:56.071Z,5.70
2022-11-20T04:25:26.149Z,5.67
2022-11-20T04:27:56.956Z,5.65
2022-11-20T04:30:27.159Z,5.63
2022-11-20T04:32:57.264Z,5.61
2022-11-20T04:35:27.504Z,5.60
2022-11-20T04:37:56.389Z,5.62
2022-11-20T04:40:26.593Z,5.64
2022-11-20T04:42:57.143Z,5.64
2022-11-20T04:45:27.215Z,5.63
2022-11-20T04:47:57.158Z,5.63
2022-11-20T04:50:25.924Z,5.61
2022-11-20T04:52:56.478Z,5.63
2022-11-20T04:55:26.928Z,5.68
2022-11-20T04:57:56.683Z,5.72
2022-11-20T05:00:27.128Z,5.76
2022-11-20T05:02:57.948Z,5.75
2022-11-20T05:05:28.772Z,5.72
2022-11-20T05:07:59.743Z,5.71
2022-11-20T05:10:29.790Z,5.71
2022-11-20T05:12:59.735Z,5.73
2022-11-20T05:15:30.304Z,5.73
2022-11-20T05:18:00.640Z,5.73
2022-11-20T05:20:30.778Z,5.74
2022-11-20T05:23:00.756Z,5.73
2022-11-20T05:25:30.737Z,5.71
2022-11-20T05:28:00.796Z,5.67
2022-11-20T05:30:30.750Z,5.60
2022-11-20T05:33:00.714Z,5.56
2022-11-20T05:35:30.224Z,5.53
2022-11-20T05:38:00.104Z,5.51
2022-11-20T05:40:30.189Z,5.50
2022-11-20T05:43:00.935Z,5.48
2022-11-20T05:45:30.188Z,5.47
2022-11-20T05:48:03.948Z,5.45
2022-11-20T05:50:36.546Z,5.44
2022-11-20T05:53:06.723Z,5.43
2022-11-20T05:55:36.801Z,5.42
2022-11-20T05:58:06.406Z,5.42
2022-11-20T06:00:37.093Z,5.42
2022-11-20T06:03:07.034Z,5.42
2022-11-20T06:05:36.834Z,5.40
2022-11-20T06:08:06.454Z,5.36
2022-11-20T06:10:36.023Z,5.32
2022-11-20T06:13:05.235Z,5.29
2022-11-20T06:15:34.096Z,5.26
2022-11-20T06:18:03.035Z,5.23
2022-11-20T06:20:31.896Z,5.19
2022-11-20T06:23:00.716Z,5.15
2022-11-20T06:25:29.582Z,5.13
2022-11-20T06:27:58.382Z,5.10
2022-11-20T06:30:27.239Z,5.08
2022-11-20T06:32:56.121Z,5.08
2022-11-20T06:35:25.095Z,5.06
2022-11-20T06:37:53.925Z,5.05
2022-11-20T06:40:22.852Z,5.03
2022-11-20T06:42:51.663Z,5.02
2022-11-20T06:45:20.521Z,5.00
2022-11-20T06:47:49.545Z,5.01
2022-11-20T06:50:18.562Z,5.01
2022-11-20T06:52:47.369Z,4.99
2022-11-20T06:55:16.369Z,5.02
2022-11-20T06:57:45.223Z,5.05
2022-11-20T07:00:15.037Z,5.06
2022-11-20T07:02:43.875Z,5.08
2022-11-20T07:05:12.738Z,5.09
2022-11-20T07:07:41.673Z,5.12
2022-11-20T07:10:11.368Z,5.15
2022-11-20T07:12:40.235Z,5.18
2022-11-20T07:15:09.610Z,5.17
2022-11-20T07:17:38.443Z,5.17
2022-11-20T07:20:08.549Z,5.17
2022-11-20T07:22:37.615Z,5.19
2022-11-20T07:25:07.211Z,5.20
2022-11-20T07:27:36.267Z,5.21
2022-11-20T07:30:06.148Z,5.20
2022-11-20T07:32:34.952Z,5.23
2022-11-20T07:35:03.974Z,5.26
2022-11-20T07:37:35.863Z,5.29
2022-11-20T07:40:05.509Z,5.32
2022-11-20T07:42:34.343Z,5.34
2022-11-20T07:45:04.467Z,5.36
2022-11-20T07:47:38.091Z,5.37
2022-11-20T07:50:07.391Z,5.39
2022-11-20T07:52:36.335Z,5.41
2022-11-20T07:55:06.350Z,5.43
2022-11-20T07:57:35.154Z,5.43
2022-11-20T08:00:10.527Z,5.46
2022-11-20T08:02:43.161Z,5.49
2022-11-20T08:05:12.704Z,5.52
2022-11-20T08:07:45.008Z,5.55
2022-11-20T08:10:17.282Z,5.58
2022-11-20T08:13:10.793Z,5.61
2022-11-20T08:15:41.512Z,5.64
2022-11-20T08:21:06.094Z,5.70
2022-11-20T08:23:34.839Z,5.71
2022-11-20T08:26:03.679Z,5.72
2022-11-20T08:28:32.515Z,5.74
2022-11-20T08:31:02.681Z,5.76
2022-11-20T08:33:33.995Z,5.77
2022-11-20T08:36:07.212Z,5.77
2022-11-20T08:38:36.016Z,5.80
2022-11-20T08:41:24.846Z,5.80
2022-11-20T08:44:05.370Z,5.81
2022-11-20T08:46:39.906Z,5.83
2022-11-20T08:49:11.095Z,5.84
2022-11-20T08:51:40.533Z,5.83
2022-11-20T08:54:09.814Z,5.81
2022-11-20T08:56:41.911Z,5.78
2022-11-20T08:59:36.717Z,5.76
2022-11-20T09:02:01.862Z,5.77
2022-11-20T09:04:31.381Z,5.79
2022-11-20T09:07:02.492Z,5.80
2022-11-20T09:09:32.622Z,5.83
2022-11-20T09:12:02.235Z,5.84
2022-11-20T09:14:31.912Z,5.83
2022-11-20T09:17:01.048Z,5.84
2022-11-20T09:19:36.958Z,5.85
2022-11-20T09:22:05.995Z,5.87
2022-11-20T09:24:34.975Z,5.89
2022-11-20T09:27:06.072Z,5.88
2022-11-20T09:29:35.025Z,5.87
2022-11-20T09:32:04.016Z,5.87
2022-11-20T09:34:33.048Z,5.89
2022-11-20T09:37:06.251Z,5.91
2022-11-20T09:39:40.283Z,5.90
2022-11-20T09:42:23.383Z,5.87
2022-11-20T09:45:41.635Z,5.88
2022-11-20T09:48:37.081Z,5.91
2022-11-20T09:51:37.689Z,5.91
2022-11-20T09:54:22.205Z,5.93
2022-11-20T09:57:03.815Z,5.95
2022-11-20T09:59:45.585Z,5.97
2022-11-20T10:02:39.061Z,6.00
2022-11-20T10:05:20.156Z,6.02
2022-11-20T10:07:56.700Z,6.04
2022-11-20T10:10:33.146Z,6.08
2022-11-20T10:13:20.448Z,6.13
2022-11-20T10:16:33.570Z,6.17
2022-11-20T10:19:16.675Z,6.20
2022-11-20T10:22:27.082Z,6.22
2022-11-20T10:25:15.392Z,6.25
2022-11-20T10:27:58.392Z,6.26
2022-11-20T10:30:28.739Z,6.24
2022-11-20T10:33:15.644Z,6.28
2022-11-20T10:35:53.359Z,6.33
2022-11-20T10:38:44.640Z,6.37
2022-11-20T10:41:33.113Z,6.42
2022-11-20T10:44:43.569Z,6.49
2022-11-20T10:47:20.114Z,6.56
2022-11-20T10:49:55.592Z,6.60
2022-11-20T10:52:27.623Z,6.65
2022-11-20T10:55:27.893Z,6.66
2022-11-20T10:58:12.843Z,6.68
2022-11-20T11:00:42.193Z,6.68
2022-11-20T11:03:30.868Z,6.68
2022-11-20T11:06:04.155Z,6.70
2022-11-20T11:08:39.051Z,6.70
2022-11-20T11:11:23.666Z,6.72
2022-11-20T11:13:53.100Z,6.74
2022-11-20T11:16:28.494Z,6.76
2022-11-20T11:19:09.481Z,6.76
2022-11-20T11:21:44.786Z,6.77
2022-11-20T11:24:42.318Z,6.79
2022-11-20T11:27:19.285Z,6.82
2022-11-20T11:29:48.709Z,6.84
2022-11-20T11:32:22.106Z,6.84
2022-11-20T11:35:05.230Z,6.83
2022-11-20T11:37:41.112Z,6.80
2022-11-20T11:40:28.062Z,6.79
2022-11-20T11:43:06.997Z,6.80
2022-11-20T11:45:35.936Z,6.81
2022-11-20T11:48:09.777Z,6.81
2022-11-20T11:50:38.626Z,6.78
2022-11-20T11:53:21.826Z,6.78
2022-11-20T11:56:12.721Z,6.77
2022-11-20T11:58:53.367Z,6.79
2022-11-20T12:01:55.216Z,6.80
2022-11-20T12:04:48.144Z,6.83
2022-11-20T12:07:47.012Z,6.86
2022-11-20T12:10:21.774Z,6.89
2022-11-20T12:13:26.125Z,6.90
2022-11-20T12:15:56.479Z,6.89
2022-11-20T12:18:26.998Z,6.86
2022-11-20T12:21:58.453Z,6.84
2022-11-20T12:24:52.207Z,6.80
2022-11-20T12:27:46.873Z,6.79
2022-11-20T12:30:23.737Z,6.80
2022-11-20T12:33:22.334Z,6.81
2022-11-20T12:36:19.961Z,6.82
2022-11-20T12:39:14.802Z,6.80
2022-11-20T12:42:38.575Z,6.80
2022-11-20T12:45:30.628Z,6.79
2022-11-20T12:48:27.671Z,6.81
2022-11-20T12:51:32.877Z,6.81
2022-11-20T12:54:13.202Z,6.79
2022-11-20T12:56:54.366Z,6.80
2022-11-20T13:00:15.351Z,6.80
2022-11-20T13:03:10.537Z,6.79
2022-11-20T13:05:53.313Z,6.78
2022-11-20T13:08:29.080Z,6.78
2022-11-20T13:11:04.106Z,6.78
2022-11-20T13:14:11.255Z,6.77
2022-11-20T13:16:54.120Z,6.78
2022-11-20T13:19:24.706Z,6.76
2022-11-20T13:21:54.653Z,6.77
2022-11-20T13:24:32.995Z,6.78
2022-11-20T13:27:03.589Z,6.80
2022-11-20T13:29:35.787Z,6.80
2022-11-20T13:32:16.654Z,6.83
2022-11-20T13:34:58.318Z,6.84
2022-11-20T13:37:39.450Z,6.84
2022-11-20T13:40:14.289Z,6.83
2022-11-20T13:42:56.347Z,6.82
2022-11-20T13:45:32.011Z,6.81
2022-11-20T13:48:07.774Z,6.82
2022-11-20T13:51:07.202Z,6.83
2022-11-20T13:53:37.199Z,6.81
2022-11-20T13:56:36.287Z,6.76
2022-11-20T13:59:37.478Z,6.73
2022-11-20T14:02:20.524Z,6.71
2022-11-20T14:04:54.602Z,6.70
2022-11-20T14:07:37.309Z,6.69
2022-11-20T14:10:20.061Z,6.67
2022-11-20T14:12:50.609Z,6.67
2022-11-20T14:15:33.350Z,6.66
2022-11-20T14:18:15.522Z,6.67
2022-11-20T14:20:46.505Z,6.67
2022-11-20T14:23:29.968Z,6.66
2022-11-20T14:26:01.008Z,6.65
2022-11-20T14:28:32.585Z,6.65
2022-11-20T14:31:02.626Z,6.66
2022-11-20T14:33:34.976Z,6.64
2022-11-20T14:36:05.393Z,6.63
2022-11-20T14:38:35.756Z,6.61
2022-11-20T14:41:16.884Z,6.60
2022-11-20T14:43:58.152Z,6.58
2022-11-20T14:46:31.540Z,6.57
2022-11-20T14:49:04.943Z,6.55
2022-11-20T14:51:44.004Z,6.55
2022-11-20T14:54:17.424Z,6.53
2022-11-20T14:57:03.114Z,6.52
2022-11-20T14:59:35.665Z,6.50
2022-11-20T15:02:10.095Z,6.48
2022-11-20T15:05:04.759Z,6.48
2022-11-20T15:07:37.320Z,6.49
2022-11-20T15:10:11.225Z,6.51
2022-11-20T15:12:50.959Z,6.53
2022-11-20T15:15:38.035Z,6.56
2022-11-20T15:18:18.675Z,6.58
2022-11-20T15:20:50.147Z,6.58
2022-11-20T15:23:21.156Z,6.59
2022-11-20T15:25:51.624Z,6.57
2022-11-20T15:28:31.087Z,6.57
2022-11-20T15:31:01.905Z,6.57
2022-11-20T15:33:33.186Z,6.57
2022-11-20T15:36:03.620Z,6.60
2022-11-20T15:38:34.554Z,6.62
2022-11-20T15:41:04.935Z,6.65
2022-11-20T15:43:34.468Z,6.68
2022-11-20T15:46:08.055Z,6.70
2022-11-20T15:48:47.400Z,6.71
2022-11-20T15:51:21.148Z,6.73
2022-11-20T15:53:49.978Z,6.75
2022-11-20T15:56:21.061Z,6.76
2022-11-20T15:58:51.130Z,6.77
2022-11-20T16:01:25.894Z,6.78
2022-11-20T16:03:56.279Z,6.78
2022-11-20T16:06:26.666Z,6.79
2022-11-20T16:08:57.325Z,6.79
2022-11-20T16:11:28.473Z,6.80
2022-11-20T16:14:17.670Z,6.80
2022-11-20T16:16:48.453Z,6.80
2022-11-20T16:19:19.513Z,6.80
2022-11-20T16:21:50.186Z,6.79
2022-11-20T16:24:21.419Z,6.78
2022-11-20T16:26:52.428Z,6.77
2022-11-20T16:29:23.192Z,6.75
2022-11-20T16:31:53.495Z,6.74
2022-11-20T16:34:23.697Z,6.73
2022-11-20T16:36:54.627Z,6.70
2022-11-20T16:39:26.786Z,6.68
2022-11-20T16:41:56.889Z,6.67
2022-11-20T16:44:26.177Z,6.66
2022-11-20T16:46:56.922Z,6.63
2022-11-20T16:49:27.317Z,6.60
2022-11-20T16:51:57.801Z,6.58
2022-11-20T16:54:28.154Z,6.55
2022-11-20T16:56:58.623Z,6.55
2022-11-20T16:59:28.817Z,6.54
2022-11-20T17:02:03.294Z,6.51
2022-11-20T17:04:33.324Z,6.49
2022-11-20T17:07:08.028Z,6.47
2022-11-20T17:09:40.600Z,6.44
2022-11-20T17:12:11.045Z,6.42
2022-11-20T17:14:40.917Z,6.40
2022-11-20T17:17:11.003Z,6.37
2022-11-20T17:19:40.898Z,6.34
2022-11-20T17:22:11.131Z,6.31
2022-11-20T17:24:41.489Z,6.30
2022-11-20T17:27:12.040Z,6.29
2022-11-20T17:29:42.394Z,6.29
2022-11-20T17:32:12.495Z,6.29
2022-11-20T17:34:42.171Z,6.32
2022-11-20T17:37:10.996Z,6.34
2022-11-20T17:39:41.345Z,6.35
2022-11-20T17:42:30.572Z,6.36
2022-11-20T17:45:00.522Z,6.36
2022-11-20T17:47:30.480Z,6.37
2022-11-20T17:50:00.283Z,6.37
2022-11-20T17:52:30.921Z,6.37
2022-11-20T17:55:01.153Z,6.38
2022-11-20T17:57:49.980Z,6.39
2022-11-20T18:00:20.997Z,6.40
2022-11-20T18:02:50.419Z,6.41
2022-11-20T18:05:20.481Z,6.42
2022-11-20T18:07:54.347Z,6.44
2022-11-20T18:10:24.484Z,6.42
2022-11-20T18:12:54.349Z,6.42
2022-11-20T18:15:24.504Z,6.44
2022-11-20T18:17:54.598Z,6.45
2022-11-20T18:20:30.185Z,6.45
2022-11-20T18:23:03.222Z,6.44
2022-11-20T18:25:32.867Z,6.37
2022-11-20T18:28:02.547Z,6.24
2022-11-20T18:30:32.968Z,6.20
2022-11-20T18:33:02.021Z,6.12
2022-11-20T18:35:32.427Z,6.09
2022-11-20T18:38:02.884Z,6.12
2022-11-20T18:40:37.047Z,6.14
2022-11-20T18:43:26.184Z,6.19
2022-11-20T18:46:06.081Z,6.25
2022-11-20T18:48:35.647Z,6.32
2022-11-20T18:51:09.053Z,6.37
2022-11-20T18:53:43.055Z,6.42
2022-11-20T18:56:16.938Z,6.45
2022-11-20T18:58:47.614Z,6.47
2022-11-20T19:01:17.911Z,6.50
2022-11-20T19:03:48.229Z,6.53
2022-11-20T19:06:18.557Z,6.55
2022-11-20T19:08:48.854Z,6.57
2022-11-20T19:11:19.986Z,6.58
2022-11-20T19:13:50.309Z,6.59
2022-11-20T19:16:22.970Z,6.58
2022-11-20T19:18:52.997Z,6.52
2022-11-20T19:21:25.722Z,6.47
2022-11-20T19:23:58.733Z,6.48
2022-11-20T19:26:29.781Z,6.46
2022-11-20T19:29:00.267Z,6.42
2022-11-20T19:31:30.648Z,6.42
2022-11-20T19:34:03.060Z,6.46
2022-11-20T19:36:39.164Z,6.49
2022-11-20T19:39:13.321Z,6.51
2022-11-20T19:41:44.129Z,6.54
2022-11-20T19:44:16.026Z,6.56
2022-11-20T19:46:46.108Z,6.57
2022-11-20T19:49:16.208Z,6.56
2022-11-20T19:51:49.274Z,6.54
2022-11-20T19:54:19.975Z,6.51
2022-11-20T19:56:51.091Z,6.50
2022-11-20T19:59:21.555Z,6.51
2022-11-20T20:01:52.763Z,6.52
2022-11-20T20:04:22.548Z,6.53
2022-11-20T20:06:52.509Z,6.53
2022-11-20T20:09:24.144Z,6.52
2022-11-20T20:11:54.416Z,6.47
2022-11-20T20:14:24.745Z,6.39
2022-11-20T20:16:57.172Z,6.31
2022-11-20T20:19:27.604Z,6.26
2022-11-20T20:21:57.540Z,6.24
2022-11-20T20:24:27.974Z,6.23
2022-11-20T20:26:58.591Z,6.21
2022-11-20T20:29:28.846Z,6.20
2022-11-20T20:31:57.710Z,6.20
2022-11-20T20:34:32.467Z,6.22
2022-11-20T20:37:05.648Z,6.21
2022-11-20T20:39:35.617Z,6.21
2022-11-20T20:42:04.447Z,6.22
2022-11-20T20:44:54.562Z,6.25
2022-11-20T20:47:25.081Z,6.28
2022-11-20T20:49:55.448Z,6.30
2022-11-20T20:52:28.401Z,6.34
2022-11-20T20:54:58.997Z,6.36
2022-11-20T20:57:29.670Z,6.32
2022-11-20T21:00:00.140Z,6.24
2022-11-20T21:02:30.686Z,6.20
2022-11-20T21:05:01.286Z,6.22
2022-11-20T21:07:31.552Z,6.25
2022-11-20T21:10:01.891Z,6.29
2022-11-20T21:12:30.854Z,6.31
2022-11-20T21:15:01.088Z,6.34
2022-11-20T21:17:31.354Z,6.35
2022-11-20T21:20:22.406Z,6.36
2022-11-20T21:22:52.350Z,6.39
2022-11-20T21:25:22.578Z,6.41
2022-11-20T21:27:52.916Z,6.44
2022-11-20T21:30:22.922Z,6.46
2022-11-20T21:32:52.823Z,6.46
2022-11-20T21:35:22.805Z,6.44
2022-11-20T21:37:53.090Z,6.43
2022-11-20T21:40:23.107Z,6.44
2022-11-20T21:42:54.455Z,6.44
2022-11-20T21:45:24.508Z,6.45
2022-11-20T21:47:54.791Z,6.38
2022-11-20T21:50:24.990Z,6.19
2022-11-20T21:52:53.724Z,6.08
2022-11-20T21:55:26.995Z,6.09
2022-11-20T21:57:57.280Z,6.12
2022-11-20T22:00:27.730Z,6.12
2022-11-20T22:02:56.579Z,6.14
2022-11-20T22:05:26.929Z,6.15
2022-11-20T22:07:57.347Z,6.17
2022-11-20T22:10:28.387Z,6.18
2022-11-20T22:13:20.072Z,6.20
2022-11-20T22:16:04.614Z,6.22
2022-11-20T22:18:43.640Z,6.22
2022-11-20T22:21:15.374Z,6.24
2022-11-20T22:23:45.679Z,6.25
2022-11-20T22:26:19.195Z,6.26
2022-11-20T22:28:50.111Z,6.26
2022-11-20T22:31:21.747Z,6.26
2022-11-20T22:33:51.528Z,6.27
2022-11-20T22:36:28.756Z,6.28
2022-11-20T22:39:03.650Z,6.28
2022-11-20T22:41:34.257Z,6.27
2022-11-20T22:44:07.044Z,6.28
2022-11-20T22:46:38.957Z,6.31
2022-11-20T22:49:09.454Z,6.34
2022-11-20T22:51:41.413Z,6.35
2022-11-20T22:54:13.263Z,6.37
2022-11-20T22:56:43.979Z,6.38
2022-11-20T22:59:14.141Z,6.40
2022-11-20T23:01:44.555Z,6.41
2022-11-20T23:04:16.611Z,6.43
2022-11-20T23:06:46.585Z,6.47
2022-11-20T23:09:16.209Z,6.49
2022-11-20T23:11:46.198Z,6.48
2022-11-20T23:14:18.131Z,6.46
2022-11-20T23:16:48.186Z,6.45
2022-11-20T23:19:19.495Z,6.45
2022-11-20T23:21:51.068Z,6.45
2022-11-20T23:24:21.135Z,6.45
2022-11-20T23:26:51.667Z,6.45
2022-11-20T23:29:20.564Z,6.46
2022-11-20T23:31:50.714Z,6.47
2022-11-20T23:34:20.975Z,6.49
2022-11-20T23:36:51.061Z,6.51
2022-11-20T23:39:22.448Z,6.52
2022-11-20T23:41:52.050Z,6.52
2022-11-20T23:44:24.036Z,6.42
2022-11-20T23:46:54.344Z,6.32
2022-11-20T23:49:24.586Z,6.24
2022-11-20T23:51:53.749Z,6.26
2022-11-20T23:54:23.856Z,6.30
2022-11-20T23:56:54.077Z,6.33
2022-11-20T23:59:24.116Z,6.33
